createdAt,value
2017-03-02T00:00:01.261Z,2.78
2017-03-02T00:01:00.936Z,2.84
2017-03-02T00:02:00.989Z,2.76
2017-03-02T00:03:01.057Z,2.83
2017-03-02T00:04:01.005Z,2.85
2017-03-02T00:05:01.048Z,2.81
2017-03-02T00:06:01.017Z,2.8
2017-03-02T00:07:02.030Z,2.83
2017-03-02T00:08:01.422Z,2.85
2017-03-02T00:09:01.258Z,2.8
2017-03-02T00:10:01.250Z,2.84
2017-03-02T00:11:01.159Z,2.81
2017-03-02T00:12:01.493Z,2.93
2017-03-02T00:13:01.254Z,2.91
2017-03-02T00:14:01.256Z,2.91
2017-03-02T00:15:01.297Z,2.95
2017-03-02T00:16:01.364Z,3.02
2017-03-02T00:17:01.609Z,2.98
2017-03-02T00:18:01.601Z,3.01
2017-03-02T00:19:01.675Z,3.03
2017-03-02T00:20:01.674Z,3.01
2017-03-02T00:21:01.694Z,2.98
2017-03-02T00:22:01.460Z,2.98
2017-03-02T00:23:01.463Z,2.95
2017-03-02T00:24:01.520Z,2.96
2017-03-02T00:25:01.827Z,3.01
2017-03-02T00:26:01.849Z,3.02
2017-03-02T00:27:01.879Z,3.11
2017-03-02T00:28:01.876Z,2.99
2017-03-02T00:29:01.653Z,3.06
2017-03-02T00:30:01.976Z,3.01
2017-03-02T00:31:01.983Z,2.96
2017-03-02T00:32:02.000Z,3.03
2017-03-02T00:33:01.745Z,3.11
2017-03-02T00:34:01.766Z,3.08
2017-03-02T00:35:01.769Z,3.17
2017-03-02T00:36:01.929Z,3.16
2017-03-02T00:37:01.857Z,3.14
2017-03-02T00:38:01.880Z,3.16
2017-03-02T00:39:01.900Z,3.21
2017-03-02T00:40:01.938Z,3.2
2017-03-02T00:41:01.946Z,3.26
2017-03-02T00:42:02.256Z,3.16
2017-03-02T00:43:01.998Z,3.24
2017-03-02T00:44:02.021Z,3.23
2017-03-02T00:45:02.332Z,3.2
2017-03-02T00:46:02.061Z,3.19
2017-03-02T00:47:02.390Z,3.17
2017-03-02T00:48:02.229Z,3.19
2017-03-02T00:49:02.145Z,3.17
2017-03-02T00:50:02.173Z,3.19
2017-03-02T00:51:02.173Z,3.2
2017-03-02T00:52:02.225Z,3.19
2017-03-02T00:53:02.648Z,3.2
2017-03-02T00:54:02.596Z,3.16
2017-03-02T00:55:02.284Z,3.19
2017-03-02T00:56:02.329Z,3.17
2017-03-02T00:57:02.354Z,3.19
2017-03-02T00:58:02.663Z,3.26
2017-03-02T00:59:02.390Z,3.34
2017-03-02T01:00:02.703Z,3.3
2017-03-02T01:01:02.438Z,3.3
2017-03-02T01:02:02.773Z,3.29
2017-03-02T01:03:02.506Z,3.32
2017-03-02T01:04:02.822Z,3.3
2017-03-02T01:05:02.844Z,3.2
2017-03-02T01:06:02.876Z,3.35
2017-03-02T01:07:02.886Z,3.21
2017-03-02T01:08:02.659Z,3.37
2017-03-02T01:09:02.952Z,3.34
2017-03-02T01:10:02.677Z,3.32
2017-03-02T01:11:02.706Z,3.3
2017-03-02T01:12:03.015Z,3.32
2017-03-02T01:13:02.735Z,3.39
2017-03-02T01:14:03.076Z,3.34
2017-03-02T01:15:03.113Z,3.4
2017-03-02T01:16:02.848Z,3.32
2017-03-02T01:17:02.854Z,3.35
2017-03-02T01:18:02.921Z,3.35
2017-03-02T01:19:03.198Z,3.39
2017-03-02T01:20:03.230Z,3.37
2017-03-02T01:21:02.976Z,3.43
2017-03-02T01:22:03.275Z,3.4
2017-03-02T01:23:47.872Z,3.42
2017-03-02T01:24:28.867Z,3.43
2017-03-02T01:25:28.908Z,3.45
2017-03-02T01:26:28.897Z,3.45
2017-03-02T01:27:28.924Z,3.43
2017-03-02T01:28:29.006Z,3.43
2017-03-02T01:29:28.990Z,3.53
2017-03-02T01:30:29.001Z,3.51
2017-03-02T01:31:29.034Z,3.51
2017-03-02T01:32:29.083Z,3.49
2017-03-02T01:33:29.110Z,3.51
2017-03-02T01:34:29.118Z,3.49
2017-03-02T01:35:29.185Z,3.54
2017-03-02T01:36:29.165Z,3.53
2017-03-02T01:37:29.211Z,3.57
2017-03-02T01:38:29.204Z,3.63
2017-03-02T01:39:29.266Z,3.61
2017-03-02T01:40:29.289Z,3.61
2017-03-02T01:41:29.292Z,3.61
2017-03-02T01:42:29.315Z,3.61
2017-03-02T01:43:29.367Z,3.64
2017-03-02T01:44:29.486Z,3.64
2017-03-02T01:45:29.394Z,3.64
2017-03-02T01:46:29.421Z,3.61
2017-03-02T01:47:29.448Z,3.66
2017-03-02T01:48:29.491Z,3.67
2017-03-02T01:49:29.745Z,3.64
2017-03-02T01:50:29.517Z,3.64
2017-03-02T01:51:30.756Z,3.64
2017-03-02T01:52:29.578Z,3.66
2017-03-02T01:53:29.951Z,3.71
2017-03-02T01:54:29.643Z,3.71
2017-03-02T01:55:29.706Z,3.81
2017-03-02T01:56:29.691Z,3.75
2017-03-02T01:57:29.720Z,3.71
2017-03-02T01:58:29.753Z,3.71
2017-03-02T01:59:30.111Z,3.71
2017-03-02T02:00:29.798Z,3.81
2017-03-02T02:01:29.819Z,3.85
2017-03-02T02:02:29.870Z,3.85
2017-03-02T02:03:29.886Z,3.82
2017-03-02T02:04:29.901Z,3.89
2017-03-02T02:05:29.901Z,3.86
2017-03-02T02:06:29.937Z,3.9
2017-03-02T02:07:29.993Z,3.94
2017-03-02T02:08:29.987Z,3.93
2017-03-02T02:09:30.012Z,3.92
2017-03-02T02:10:30.111Z,3.89
2017-03-02T02:11:30.096Z,3.92
2017-03-02T02:12:30.094Z,3.86
2017-03-02T02:13:30.107Z,3.9
2017-03-02T02:14:30.147Z,3.96
2017-03-02T02:15:30.192Z,3.97
2017-03-02T02:16:30.221Z,3.96
2017-03-02T02:17:30.228Z,3.96
2017-03-02T02:18:30.277Z,4.08
2017-03-02T02:19:30.311Z,4.07
2017-03-02T02:20:30.325Z,4.02
2017-03-02T02:21:30.352Z,4.11
2017-03-02T02:22:30.691Z,4.11
2017-03-02T02:23:30.398Z,4.14
2017-03-02T02:24:30.437Z,4.17
2017-03-02T02:25:30.445Z,4.14
2017-03-02T02:26:30.509Z,4.15
2017-03-02T02:27:30.504Z,4.17
2017-03-02T02:28:30.515Z,4.14
2017-03-02T02:29:30.544Z,4.2
2017-03-02T02:30:30.597Z,4.2
2017-03-02T02:31:30.585Z,4.17
2017-03-02T02:32:30.641Z,4.18
2017-03-02T02:33:30.697Z,4.14
2017-03-02T02:34:30.701Z,4.08
2017-03-02T02:35:30.694Z,4.1
2017-03-02T02:36:30.727Z,4.12
2017-03-02T02:37:30.768Z,4.22
2017-03-02T02:38:30.798Z,4.29
2017-03-02T02:39:30.797Z,4.24
2017-03-02T02:40:30.823Z,4.17
2017-03-02T02:41:30.851Z,4.22
2017-03-02T02:42:30.872Z,4.3
2017-03-02T02:43:30.920Z,4.12
2017-03-02T02:44:30.956Z,4.33
2017-03-02T02:45:30.980Z,4.29
2017-03-02T02:46:30.993Z,4.33
2017-03-02T02:47:31.058Z,4.26
2017-03-02T02:48:31.050Z,4.3
2017-03-02T02:49:31.103Z,4.36
2017-03-02T02:50:31.114Z,4.33
2017-03-02T02:51:31.124Z,4.15
2017-03-02T02:52:31.139Z,4.3
2017-03-02T02:53:31.200Z,4.26
2017-03-02T02:54:31.217Z,4.3
2017-03-02T02:55:31.218Z,4.28
2017-03-02T02:56:31.240Z,4.32
2017-03-02T02:57:31.325Z,4.3
2017-03-02T02:58:31.318Z,4.35
2017-03-02T02:59:31.328Z,4.32
2017-03-02T03:00:31.350Z,4.46
2017-03-02T03:01:31.552Z,4.42
2017-03-02T03:02:31.427Z,4.48
2017-03-02T03:03:31.475Z,4.4
2017-03-02T03:04:31.450Z,4.44
2017-03-02T03:05:31.507Z,4.5
2017-03-02T03:06:31.538Z,4.36
2017-03-02T03:07:31.530Z,4.47
2017-03-02T03:08:31.575Z,4.47
2017-03-02T03:09:31.591Z,4.47
2017-03-02T03:10:31.640Z,4.53
2017-03-02T03:11:31.668Z,4.54
2017-03-02T03:12:31.658Z,4.51
2017-03-02T03:13:31.748Z,4.56
2017-03-02T03:14:31.749Z,4.58
2017-03-02T03:15:31.735Z,4.6
2017-03-02T03:16:31.773Z,4.58
2017-03-02T03:17:31.850Z,4.64
2017-03-02T03:18:32.150Z,4.57
2017-03-02T03:19:31.904Z,4.66
2017-03-02T03:20:31.993Z,4.64
2017-03-02T03:21:31.939Z,4.61
2017-03-02T03:22:31.934Z,4.57
2017-03-02T03:23:31.948Z,4.61
2017-03-02T03:24:31.986Z,4.68
2017-03-02T03:25:32.035Z,4.65
2017-03-02T03:26:32.073Z,4.69
2017-03-02T03:27:32.069Z,4.61
2017-03-02T03:28:32.144Z,4.65
2017-03-02T03:29:32.156Z,4.64
2017-03-02T03:30:32.144Z,4.65
2017-03-02T03:31:32.163Z,4.72
2017-03-02T03:32:32.255Z,4.68
2017-03-02T03:33:32.245Z,4.71
2017-03-02T03:34:32.241Z,4.65
2017-03-02T03:35:32.288Z,4.74
2017-03-02T03:36:32.386Z,4.68
2017-03-02T03:37:32.325Z,4.75
2017-03-02T03:38:32.355Z,4.68
2017-03-02T03:39:32.385Z,4.69
2017-03-02T03:40:32.438Z,4.75
2017-03-02T03:41:32.448Z,4.79
2017-03-02T03:42:32.501Z,4.78
2017-03-02T03:43:32.836Z,4.72
2017-03-02T03:44:32.541Z,4.78
2017-03-02T03:45:32.534Z,4.79
2017-03-02T03:46:32.572Z,4.78
2017-03-02T03:47:32.654Z,4.76
2017-03-02T03:48:32.651Z,4.75
2017-03-02T03:49:32.638Z,4.85
2017-03-02T03:50:32.706Z,4.71
2017-03-02T03:51:32.736Z,4.72
2017-03-02T03:52:32.746Z,4.74
2017-03-02T03:53:32.775Z,4.74
2017-03-02T03:54:32.792Z,4.75
2017-03-02T03:55:32.835Z,4.83
2017-03-02T03:56:32.846Z,4.85
2017-03-02T03:57:32.888Z,4.84
2017-03-02T03:58:32.946Z,4.85
2017-03-02T03:59:32.911Z,4.87
2017-03-02T04:00:32.939Z,4.94
2017-03-02T04:01:33.258Z,4.88
2017-03-02T04:02:33.002Z,4.91
2017-03-02T04:03:33.057Z,4.97
2017-03-02T04:04:33.050Z,4.98
2017-03-02T04:05:33.078Z,5
2017-03-02T04:06:33.155Z,4.88
2017-03-02T04:07:33.156Z,5.02
2017-03-02T04:08:33.181Z,5
2017-03-02T04:09:33.204Z,5.05
2017-03-02T04:10:33.237Z,4.98
2017-03-02T04:11:33.288Z,4.98
2017-03-02T04:12:33.285Z,5.02
2017-03-02T04:13:33.352Z,5.02
2017-03-02T04:14:33.356Z,5.09
2017-03-02T04:15:33.377Z,5.05
2017-03-02T04:16:33.423Z,5.05
2017-03-02T04:17:33.435Z,5.05
2017-03-02T04:18:33.442Z,5.03
2017-03-02T04:19:33.449Z,5.13
2017-03-02T04:20:33.524Z,5.12
2017-03-02T04:21:33.556Z,5.05
2017-03-02T04:22:33.555Z,5.16
2017-03-02T04:23:33.589Z,5.08
2017-03-02T04:24:33.606Z,5.18
2017-03-02T04:25:33.654Z,5.12
2017-03-02T04:26:33.637Z,5.16
2017-03-02T04:27:33.663Z,5.16
2017-03-02T04:28:33.732Z,5.18
2017-03-02T04:29:33.728Z,5.13
2017-03-02T04:30:33.740Z,5.23
2017-03-02T04:31:33.767Z,5.18
2017-03-02T04:32:33.844Z,5.23
2017-03-02T04:33:33.855Z,5.12
2017-03-02T04:34:33.881Z,5.16
2017-03-02T04:35:33.871Z,5.23
2017-03-02T04:36:33.980Z,5.18
2017-03-02T04:37:33.949Z,5.24
2017-03-02T04:38:33.983Z,5.27
2017-03-02T04:39:34.009Z,5.24
2017-03-02T04:40:34.058Z,5.33
2017-03-02T04:41:34.060Z,5.34
2017-03-02T04:42:34.263Z,5.34
2017-03-02T04:43:34.089Z,5.31
2017-03-02T04:44:34.164Z,5.37
2017-03-02T04:45:34.145Z,5.31
2017-03-02T04:46:34.222Z,5.42
2017-03-02T04:47:34.346Z,5.46
2017-03-02T04:48:34.244Z,5.41
2017-03-02T04:49:34.288Z,5.44
2017-03-02T04:50:34.292Z,5.45
2017-03-02T04:51:34.299Z,5.45
2017-03-02T04:52:34.359Z,5.46
2017-03-02T04:53:34.377Z,5.51
2017-03-02T04:54:34.383Z,5.49
2017-03-02T04:55:34.460Z,5.48
2017-03-02T04:56:34.454Z,5.48
2017-03-02T04:57:34.503Z,5.44
2017-03-02T04:58:34.519Z,5.49
2017-03-02T04:59:34.564Z,5.46
2017-03-02T05:00:34.529Z,5.46
2017-03-02T05:01:34.549Z,5.45
2017-03-02T05:02:34.603Z,5.37
2017-03-02T05:03:34.615Z,5.44
2017-03-02T05:04:34.647Z,5.39
2017-03-02T05:05:34.667Z,5.41
2017-03-02T05:06:34.688Z,5.41
2017-03-02T05:07:34.741Z,5.37
2017-03-02T05:08:34.746Z,5.42
2017-03-02T05:09:34.745Z,5.44
2017-03-02T05:10:34.800Z,5.46
2017-03-02T05:11:34.814Z,5.42
2017-03-02T05:12:34.851Z,5.42
2017-03-02T05:13:34.875Z,5.41
2017-03-02T05:14:34.898Z,5.41
2017-03-02T05:15:34.924Z,5.36
2017-03-02T05:16:34.945Z,5.44
2017-03-02T05:17:34.985Z,5.37
2017-03-02T05:18:35.018Z,5.41
2017-03-02T05:19:35.035Z,5.39
2017-03-02T05:20:35.073Z,5.39
2017-03-02T05:21:35.088Z,5.42
2017-03-02T05:22:35.162Z,5.46
2017-03-02T05:23:35.155Z,5.44
2017-03-02T05:24:35.169Z,5.45
2017-03-02T05:25:35.196Z,5.45
2017-03-02T05:26:35.227Z,5.42
2017-03-02T05:27:35.233Z,5.42
2017-03-02T05:28:35.263Z,5.41
2017-03-02T05:29:35.302Z,5.34
2017-03-02T05:30:35.317Z,5.37
2017-03-02T05:31:35.358Z,5.45
2017-03-02T05:32:35.372Z,5.39
2017-03-02T05:33:35.558Z,5.44
2017-03-02T05:34:35.428Z,5.45
2017-03-02T05:35:35.471Z,5.44
2017-03-02T05:36:35.499Z,5.44
2017-03-02T05:37:35.526Z,5.44
2017-03-02T05:38:35.551Z,5.52
2017-03-02T05:39:35.556Z,5.44
2017-03-02T05:40:35.624Z,5.48
2017-03-02T05:41:35.636Z,5.51
2017-03-02T05:42:35.658Z,5.54
2017-03-02T05:43:35.686Z,5.54
2017-03-02T05:44:35.712Z,5.49
2017-03-02T05:45:35.742Z,5.55
2017-03-02T05:46:35.753Z,5.48
2017-03-02T05:47:35.800Z,5.57
2017-03-02T05:48:35.825Z,5.52
2017-03-02T05:49:35.847Z,5.59
2017-03-02T05:50:35.856Z,5.66
2017-03-02T05:51:35.887Z,5.64
2017-03-02T05:52:35.921Z,5.59
2017-03-02T05:53:35.950Z,5.64
2017-03-02T05:54:35.985Z,5.55
2017-03-02T05:55:36.011Z,5.57
2017-03-02T05:56:36.014Z,5.59
2017-03-02T05:57:36.070Z,5.59
2017-03-02T05:58:36.088Z,5.67
2017-03-02T05:59:36.114Z,5.66
2017-03-02T06:00:36.185Z,5.64
2017-03-02T06:01:36.182Z,5.75
2017-03-02T06:02:36.192Z,5.62
2017-03-02T06:03:36.218Z,5.63
2017-03-02T06:04:36.248Z,5.63
2017-03-02T06:05:36.278Z,5.75
2017-03-02T06:06:36.299Z,5.67
2017-03-02T06:07:36.325Z,5.64
2017-03-02T06:08:36.368Z,5.62
2017-03-02T06:09:36.419Z,5.77
2017-03-02T06:10:36.413Z,5.73
2017-03-02T06:11:36.427Z,5.73
2017-03-02T06:12:36.468Z,5.81
2017-03-02T06:13:36.484Z,5.81
2017-03-02T06:14:36.544Z,5.84
2017-03-02T06:15:36.550Z,5.84
2017-03-02T06:16:36.556Z,5.82
2017-03-02T06:17:36.575Z,5.84
2017-03-02T06:18:36.631Z,5.91
2017-03-02T06:19:36.700Z,5.84
2017-03-02T06:20:36.707Z,6
2017-03-02T06:21:36.721Z,6.02
2017-03-02T06:22:36.739Z,5.99
2017-03-02T06:23:36.754Z,6.06
2017-03-02T06:24:36.789Z,6.09
2017-03-02T06:25:36.837Z,6.14
2017-03-02T06:26:36.843Z,6.18
2017-03-02T06:27:36.877Z,6.18
2017-03-02T06:28:36.893Z,6.18
2017-03-02T06:29:36.946Z,6.2
2017-03-02T06:30:36.960Z,6.17
2017-03-02T06:31:36.960Z,6.24
2017-03-02T06:32:37.012Z,6.2
2017-03-02T06:33:37.039Z,6.2
2017-03-02T06:34:37.134Z,6.17
2017-03-02T06:35:37.093Z,6.15
2017-03-02T06:36:37.106Z,6.24
2017-03-02T06:37:37.752Z,6.25
2017-03-02T06:38:37.757Z,6.31
2017-03-02T06:39:37.803Z,6.25
2017-03-02T06:40:37.826Z,6.26
2017-03-02T06:41:37.878Z,6.29
2017-03-02T06:42:37.888Z,6.37
2017-03-02T06:43:37.922Z,6.55
2017-03-02T06:44:37.956Z,6.61
2017-03-02T06:45:37.978Z,6.58
2017-03-02T06:46:38.010Z,6.67
2017-03-02T06:47:38.041Z,6.68
2017-03-02T06:48:38.059Z,6.8
2017-03-02T06:49:38.092Z,6.82
2017-03-02T06:50:38.169Z,6.91
2017-03-02T06:51:38.124Z,6.9
2017-03-02T06:52:38.159Z,7.03
2017-03-02T06:53:38.281Z,6.97
2017-03-02T06:54:38.258Z,7
2017-03-02T06:55:38.243Z,7.03
2017-03-02T06:56:38.299Z,7.08
2017-03-02T06:57:38.341Z,7.15
2017-03-02T06:58:38.335Z,7.13
2017-03-02T06:59:38.369Z,7.15
2017-03-02T07:00:38.393Z,7.27
2017-03-02T07:01:38.424Z,7.34
2017-03-02T07:02:38.441Z,7.34
2017-03-02T07:03:38.491Z,7.45
2017-03-02T07:04:38.513Z,7.49
2017-03-02T07:05:38.541Z,7.51
2017-03-02T07:06:38.535Z,7.48
2017-03-02T07:07:38.563Z,7.54
2017-03-02T07:08:38.627Z,7.67
2017-03-02T07:09:38.671Z,7.67
2017-03-02T07:10:38.653Z,7.74
2017-03-02T07:11:38.710Z,7.74
2017-03-02T07:12:38.741Z,7.77
2017-03-02T07:13:38.755Z,7.78
2017-03-02T07:14:38.768Z,7.75
2017-03-02T07:15:38.805Z,7.68
2017-03-02T07:16:38.834Z,7.7
2017-03-02T07:17:38.868Z,7.75
2017-03-02T07:18:38.904Z,7.64
2017-03-02T07:19:38.953Z,7.73
2017-03-02T07:20:38.971Z,7.67
2017-03-02T07:21:38.970Z,7.78
2017-03-02T07:22:39.013Z,7.83
2017-03-02T07:23:39.035Z,7.86
2017-03-02T07:24:39.062Z,7.96
2017-03-02T07:25:39.110Z,7.89
2017-03-02T07:26:39.143Z,7.93
2017-03-02T07:27:39.125Z,7.89
2017-03-02T07:28:39.210Z,7.86
2017-03-02T07:29:39.218Z,7.92
2017-03-02T07:30:39.222Z,7.95
2017-03-02T07:31:39.279Z,7.89
2017-03-02T07:32:39.275Z,7.85
2017-03-02T07:33:39.319Z,7.91
2017-03-02T07:34:39.351Z,7.96
2017-03-02T07:35:39.382Z,7.86
2017-03-02T07:36:39.423Z,8.03
2017-03-02T07:37:39.445Z,7.95
2017-03-02T07:38:39.460Z,7.91
2017-03-02T07:39:39.483Z,8.01
2017-03-02T07:40:39.517Z,7.98
2017-03-02T07:41:39.525Z,7.91
2017-03-02T07:42:39.585Z,7.98
2017-03-02T07:43:39.586Z,7.93
2017-03-02T07:44:39.644Z,7.91
2017-03-02T07:45:39.641Z,7.92
2017-03-02T07:46:39.678Z,7.88
2017-03-02T07:47:39.735Z,7.75
2017-03-02T07:48:39.780Z,7.8
2017-03-02T07:49:39.781Z,7.7
2017-03-02T07:50:39.803Z,7.58
2017-03-02T07:51:39.814Z,7.52
2017-03-02T07:52:39.849Z,7.48
2017-03-02T07:53:39.908Z,7.39
2017-03-02T07:54:39.936Z,7.41
2017-03-02T07:55:39.959Z,7.31
2017-03-02T07:56:39.985Z,7.27
2017-03-02T07:57:40.021Z,7.11
2017-03-02T07:58:40.051Z,7.08
2017-03-02T07:59:40.083Z,7
2017-03-02T08:00:40.080Z,6.95
2017-03-02T08:01:40.119Z,7.03
2017-03-02T08:02:40.130Z,6.9
2017-03-02T08:03:40.190Z,6.85
2017-03-02T08:04:40.221Z,6.82
2017-03-02T08:05:40.248Z,6.72
2017-03-02T08:06:40.272Z,6.73
2017-03-02T08:07:40.271Z,6.58
2017-03-02T08:08:40.300Z,6.47
2017-03-02T08:09:40.344Z,6.44
2017-03-02T08:10:40.366Z,6.2
2017-03-02T08:11:40.404Z,6.21
2017-03-02T08:12:40.436Z,6.2
2017-03-02T08:13:40.443Z,6.14
2017-03-02T08:14:40.484Z,6.02
2017-03-02T08:15:40.474Z,6.03
2017-03-02T08:16:40.550Z,6
2017-03-02T08:17:40.579Z,5.91
2017-03-02T08:18:40.584Z,5.87
2017-03-02T08:19:40.628Z,5.78
2017-03-02T08:20:40.650Z,5.8
2017-03-02T08:21:40.681Z,5.69
2017-03-02T08:22:40.704Z,5.7
2017-03-02T08:23:40.745Z,5.64
2017-03-02T08:24:40.743Z,5.73
2017-03-02T08:25:40.801Z,5.51
2017-03-02T08:26:40.823Z,5.6
2017-03-02T08:27:40.855Z,5.54
2017-03-02T08:28:40.876Z,5.51
2017-03-02T08:29:40.916Z,5.52
2017-03-02T08:30:40.936Z,5.52
2017-03-02T08:31:41.013Z,5.49
2017-03-02T08:32:40.974Z,5.55
2017-03-02T08:33:41.002Z,5.59
2017-03-02T08:34:41.054Z,5.55
2017-03-02T08:35:41.050Z,5.66
2017-03-02T08:36:41.075Z,5.59
2017-03-02T08:37:41.106Z,5.7
2017-03-02T08:38:41.125Z,5.72
2017-03-02T08:39:41.167Z,5.67
2017-03-02T08:40:41.165Z,5.73
2017-03-02T08:41:41.219Z,5.8
2017-03-02T08:42:41.241Z,5.78
2017-03-02T08:43:41.279Z,5.8
2017-03-02T08:44:41.307Z,5.88
2017-03-02T08:45:41.356Z,5.88
2017-03-02T08:46:41.317Z,5.91
2017-03-02T08:47:41.384Z,5.99
2017-03-02T08:48:41.429Z,5.89
2017-03-02T08:49:41.423Z,6.06
2017-03-02T08:50:41.474Z,6.06
2017-03-02T08:51:41.485Z,6.05
2017-03-02T08:52:41.538Z,6.15
2017-03-02T08:53:41.548Z,6.14
2017-03-02T08:54:41.577Z,6.17
2017-03-02T08:55:41.574Z,6.31
2017-03-02T08:56:41.634Z,6.15
2017-03-02T08:57:41.629Z,6.25
2017-03-02T08:58:41.671Z,6.2
2017-03-02T08:59:41.715Z,6.18
2017-03-02T09:00:41.735Z,6.28
2017-03-02T09:01:41.780Z,6.46
2017-03-02T09:02:41.772Z,6.6
2017-03-02T09:03:41.820Z,6.75
2017-03-02T09:04:41.846Z,6.83
2017-03-02T09:05:41.877Z,6.86
2017-03-02T09:06:41.910Z,6.91
2017-03-02T09:07:41.931Z,6.85
2017-03-02T09:08:41.961Z,6.85
2017-03-02T09:09:41.998Z,6.88
2017-03-02T09:10:42.019Z,6.94
2017-03-02T09:11:42.056Z,7.03
2017-03-02T09:12:42.057Z,7.01
2017-03-02T09:13:42.098Z,7
2017-03-02T09:14:42.120Z,7.01
2017-03-02T09:15:42.156Z,7.01
2017-03-02T09:16:42.197Z,7.03
2017-03-02T09:17:42.220Z,7.01
2017-03-02T09:18:42.245Z,7.03
2017-03-02T09:19:42.252Z,7.01
2017-03-02T09:20:42.311Z,7.05
2017-03-02T09:21:42.326Z,6.95
2017-03-02T09:22:42.342Z,6.95
2017-03-02T09:23:42.367Z,7.03
2017-03-02T09:24:42.411Z,6.95
2017-03-02T09:25:42.564Z,7
2017-03-02T09:26:42.455Z,7.09
2017-03-02T09:27:42.497Z,7.26
2017-03-02T09:28:42.529Z,7.29
2017-03-02T09:29:42.548Z,7.29
2017-03-02T09:30:42.684Z,7.27
2017-03-02T09:31:42.576Z,7.26
2017-03-02T09:32:42.662Z,7.11
2017-03-02T09:33:42.638Z,7.13
2017-03-02T09:34:42.663Z,7.12
2017-03-02T09:35:42.756Z,7.08
2017-03-02T09:36:42.753Z,7.01
2017-03-02T09:37:42.774Z,7.05
2017-03-02T09:38:42.826Z,7
2017-03-02T09:39:42.827Z,6.94
2017-03-02T09:40:42.847Z,6.98
2017-03-02T09:41:42.888Z,7.04
2017-03-02T09:42:42.956Z,7.18
2017-03-02T09:43:42.954Z,7.26
2017-03-02T09:44:42.987Z,7.37
2017-03-02T09:45:42.996Z,7.31
2017-03-02T09:46:43.038Z,7.34
2017-03-02T09:47:43.052Z,7.36
2017-03-02T09:48:43.077Z,7.37
2017-03-02T09:49:43.152Z,7.41
2017-03-02T09:50:43.162Z,7.48
2017-03-02T09:51:43.178Z,7.52
2017-03-02T09:52:43.212Z,7.51
2017-03-02T09:53:43.233Z,7.48
2017-03-02T09:54:43.251Z,7.54
2017-03-02T09:55:43.303Z,7.44
2017-03-02T09:56:43.323Z,7.4
2017-03-02T09:57:43.337Z,7.41
2017-03-02T09:58:43.385Z,7.41
2017-03-02T09:59:43.416Z,7.37
2017-03-02T10:00:43.426Z,7.48
2017-03-02T10:01:43.441Z,7.44
2017-03-02T10:02:43.504Z,7.56
2017-03-02T10:03:43.523Z,7.73
2017-03-02T10:04:43.531Z,7.89
2017-03-02T10:05:43.566Z,8.07
2017-03-02T10:06:43.582Z,8.32
2017-03-02T10:07:43.595Z,8.54
2017-03-02T10:08:43.662Z,8.79
2017-03-02T10:09:43.701Z,9.03
2017-03-02T10:10:43.728Z,9.09
2017-03-02T10:11:43.945Z,9.19
2017-03-02T10:12:43.763Z,9.24
2017-03-02T10:13:43.804Z,9.35
2017-03-02T10:14:43.843Z,9.14
2017-03-02T10:15:43.883Z,9.12
2017-03-02T10:16:44.255Z,9.09
2017-03-02T10:17:43.963Z,8.92
2017-03-02T10:18:43.953Z,8.82
2017-03-02T10:19:43.969Z,8.71
2017-03-02T10:20:44.015Z,8.67
2017-03-02T10:21:44.336Z,8.5
2017-03-02T10:22:44.073Z,8.46
2017-03-02T10:23:44.075Z,8.4
2017-03-02T10:24:44.131Z,8.28
2017-03-02T10:25:44.166Z,8.28
2017-03-02T10:26:44.155Z,8.26
2017-03-02T10:27:44.211Z,8.28
2017-03-02T10:28:44.244Z,8.39
2017-03-02T10:29:44.262Z,8.64
2017-03-02T10:30:44.310Z,8.71
2017-03-02T10:31:44.333Z,9
2017-03-02T10:32:44.363Z,9.19
2017-03-02T10:33:44.371Z,9.32
2017-03-02T10:34:44.409Z,9.17
2017-03-02T10:35:44.447Z,9.03
2017-03-02T10:36:44.493Z,9.11
2017-03-02T10:37:44.502Z,9.01
2017-03-02T10:38:44.507Z,9.05
2017-03-02T10:39:44.580Z,9.03
2017-03-02T10:40:44.596Z,9.14
2017-03-02T10:41:44.631Z,9.44
2017-03-02T10:42:44.664Z,9.8
2017-03-02T10:43:44.680Z,10.03
2017-03-02T10:44:44.735Z,10.18
2017-03-02T10:45:44.748Z,10.03
2017-03-02T10:46:44.786Z,9.96
2017-03-02T10:47:45.012Z,9.84
2017-03-02T10:48:44.855Z,9.82
2017-03-02T10:49:44.873Z,9.8
2017-03-02T10:50:44.880Z,9.78
2017-03-02T10:51:44.938Z,9.5
2017-03-02T10:52:44.950Z,9.48
2017-03-02T10:53:44.969Z,9.23
2017-03-02T10:54:45.008Z,9
2017-03-02T10:55:45.034Z,8.62
2017-03-02T10:56:45.066Z,8.5
2017-03-02T10:57:45.077Z,8.24
2017-03-02T10:58:45.127Z,8.13
2017-03-02T10:59:45.161Z,7.98
2017-03-02T11:00:45.175Z,7.98
2017-03-02T11:01:45.231Z,7.89
2017-03-02T11:02:45.602Z,7.75
2017-03-02T11:03:45.311Z,7.63
2017-03-02T11:04:45.310Z,7.29
2017-03-02T11:05:45.330Z,7.29
2017-03-02T11:06:45.364Z,7.15
2017-03-02T11:07:45.499Z,7.01
2017-03-02T11:08:45.416Z,7
2017-03-02T11:09:45.466Z,6.91
2017-03-02T11:10:45.480Z,6.85
2017-03-02T11:11:45.512Z,6.8
2017-03-02T11:12:45.633Z,6.76
2017-03-02T11:13:45.575Z,6.79
2017-03-02T11:14:45.612Z,6.76
2017-03-02T11:15:45.593Z,6.73
2017-03-02T11:16:45.668Z,6.75
2017-03-02T11:17:45.702Z,6.68
2017-03-02T11:18:45.717Z,6.64
2017-03-02T11:19:45.750Z,6.72
2017-03-02T11:20:45.778Z,6.79
2017-03-02T11:21:45.812Z,6.7
2017-03-02T11:22:45.808Z,6.72
2017-03-02T11:23:45.879Z,6.65
2017-03-02T11:24:45.864Z,6.62
2017-03-02T11:25:45.916Z,6.58
2017-03-02T11:26:45.929Z,6.57
2017-03-02T11:27:45.968Z,6.58
2017-03-02T11:28:46.169Z,6.65
2017-03-02T11:29:46.023Z,6.65
2017-03-02T11:30:46.059Z,6.68
2017-03-02T11:31:46.080Z,6.72
2017-03-02T11:32:46.110Z,6.76
2017-03-02T11:33:46.159Z,6.82
2017-03-02T11:34:46.185Z,6.88
2017-03-02T11:35:46.388Z,7.01
2017-03-02T11:36:46.229Z,7.03
2017-03-02T11:37:46.229Z,7.05
2017-03-02T11:38:46.288Z,7.16
2017-03-02T11:39:46.310Z,7.34
2017-03-02T11:40:46.338Z,7.49
2017-03-02T11:41:46.361Z,7.54
2017-03-02T11:42:46.400Z,7.67
2017-03-02T11:43:46.425Z,7.63
2017-03-02T11:44:46.472Z,7.67
2017-03-02T11:45:46.481Z,7.77
2017-03-02T11:46:46.481Z,7.8
2017-03-02T11:47:46.529Z,7.88
2017-03-02T11:48:46.565Z,8.01
2017-03-02T11:49:46.587Z,8.1
2017-03-02T11:50:46.620Z,8.16
2017-03-02T11:51:46.629Z,8.26
2017-03-02T11:52:46.672Z,8.13
2017-03-02T11:53:46.699Z,8.28
2017-03-02T11:54:46.728Z,8.1
2017-03-02T11:55:46.770Z,8.17
2017-03-02T11:56:46.786Z,8.03
2017-03-02T11:57:46.815Z,8.04
2017-03-02T11:58:47.014Z,8.21
2017-03-02T11:59:46.860Z,8.14
2017-03-02T12:00:46.904Z,8.16
2017-03-02T12:01:46.935Z,8.19
2017-03-02T12:02:46.958Z,8.17
2017-03-02T12:03:47.091Z,8.17
2017-03-02T12:04:47.006Z,8.19
2017-03-02T12:05:47.055Z,8.14
2017-03-02T12:06:47.084Z,8.13
2017-03-02T12:07:47.098Z,8.13
2017-03-02T12:08:47.232Z,8.13
2017-03-02T12:09:47.159Z,8.11
2017-03-02T12:10:47.198Z,8.19
2017-03-02T12:11:47.237Z,8.11
2017-03-02T12:12:47.219Z,8.11
2017-03-02T12:13:47.258Z,8.17
2017-03-02T12:14:47.302Z,8.11
2017-03-02T12:15:47.334Z,8.03
2017-03-02T12:16:47.369Z,8.1
2017-03-02T12:17:47.389Z,8.06
2017-03-02T12:18:47.406Z,8.01
2017-03-02T12:19:47.431Z,7.92
2017-03-02T12:20:47.459Z,7.95
2017-03-02T12:21:47.504Z,7.82
2017-03-02T12:22:47.521Z,7.89
2017-03-02T12:23:47.588Z,7.8
2017-03-02T12:24:47.611Z,7.74
2017-03-02T12:25:47.628Z,7.75
2017-03-02T12:26:47.657Z,7.74
2017-03-02T12:27:47.678Z,7.78
2017-03-02T12:28:47.777Z,7.78
2017-03-02T12:29:47.731Z,7.74
2017-03-02T12:30:47.764Z,7.67
2017-03-02T12:31:47.810Z,7.56
2017-03-02T12:32:47.835Z,7.41
2017-03-02T12:33:47.831Z,7.31
2017-03-02T12:34:47.882Z,7.31
2017-03-02T12:35:47.911Z,7.12
2017-03-02T12:36:47.937Z,7.01
2017-03-02T12:37:47.977Z,7
2017-03-02T12:38:48.003Z,7.04
2017-03-02T12:39:48.032Z,6.88
2017-03-02T12:40:48.042Z,7.08
2017-03-02T12:41:48.065Z,6.94
2017-03-02T12:42:48.100Z,7.03
2017-03-02T12:43:48.140Z,6.9
2017-03-02T12:44:48.158Z,6.8
2017-03-02T12:45:48.150Z,6.7
2017-03-02T12:46:48.203Z,6.68
2017-03-02T12:47:48.293Z,6.73
2017-03-02T12:48:48.278Z,6.62
2017-03-02T12:49:48.628Z,6.64
2017-03-02T12:50:48.307Z,6.67
2017-03-02T12:51:48.352Z,6.7
2017-03-02T12:52:48.391Z,6.65
2017-03-02T12:53:49.380Z,6.67
2017-03-02T12:54:48.533Z,6.73
2017-03-02T12:55:48.466Z,6.79
2017-03-02T12:56:48.505Z,6.82
2017-03-02T12:57:48.506Z,6.9
2017-03-02T12:58:48.551Z,7
2017-03-02T12:59:48.735Z,7.05
2017-03-02T13:00:48.613Z,7.01
2017-03-02T13:01:48.637Z,7.05
2017-03-02T13:02:48.677Z,7.11
2017-03-02T13:03:48.687Z,7.11
2017-03-02T13:04:48.701Z,7.13
2017-03-02T13:05:48.763Z,7.12
2017-03-02T13:06:48.774Z,7.09
2017-03-02T13:07:48.794Z,7.09
2017-03-02T13:08:48.835Z,6.97
2017-03-02T13:09:48.872Z,6.97
2017-03-02T13:10:48.893Z,6.93
2017-03-02T13:11:48.908Z,6.98
2017-03-02T13:12:48.931Z,6.97
2017-03-02T13:13:48.974Z,6.98
2017-03-02T13:14:49.006Z,7.05
2017-03-02T13:15:49.002Z,7.01
2017-03-02T13:16:49.068Z,7.03
2017-03-02T13:17:49.100Z,7
2017-03-02T13:18:49.090Z,7
2017-03-02T13:19:49.140Z,7.05
2017-03-02T13:20:49.168Z,7.09
2017-03-02T13:21:49.214Z,7.12
2017-03-02T13:22:49.202Z,7.13